Ralston, Wyoming
Current Conditions -  °F | °C
As of 10:15 AM on Friday 24 Oct 2014 (Local Time) from KPOY Reporting Station
Clear Clear  
Wind Chill: 64°   Ceiling: Unl
Heat Index: 64°   Visibility: 10mi
Dew Point: 30°   Wind: 9mph
Humidity: 28%   Direction: 250°WSW
Pressure: 30.06"   Gusts: NA
Location:  44.72°N, 108.87°W
Report Text: KPOY 241615Z AUTO 25008KT 10SM CLR 18/M01 A3006 RMK AO2
Loading
Personal Weather Stations






























Interactive Weather Map New forecast layout! Learn more

10-Day Weather Forecast

Advertisements
Track Severe Weather on mobile